createdAt,value
2024-05-09T00:00:43.565Z,77.54
2024-05-09T00:03:31.368Z,77.55
2024-05-09T00:05:59.163Z,77.69
2024-05-09T00:08:26.967Z,77.64
2024-05-09T00:10:54.807Z,77.59
2024-05-09T00:13:22.559Z,77.49
2024-05-09T00:15:50.098Z,77.60
2024-05-09T00:18:17.919Z,77.69
2024-05-09T00:20:45.652Z,77.78
2024-05-09T00:23:14.132Z,77.77
2024-05-09T00:25:45.444Z,77.62
2024-05-09T00:28:13.284Z,77.60
2024-05-09T00:30:41.364Z,77.73
2024-05-09T00:33:10.563Z,77.87
2024-05-09T00:35:39.604Z,77.87
2024-05-09T00:38:07.739Z,77.81
2024-05-09T00:40:42.160Z,77.77
2024-05-09T00:43:12.605Z,77.84
2024-05-09T00:45:41.586Z,77.92
2024-05-09T00:48:12.571Z,77.93
2024-05-09T00:50:44.754Z,77.89
2024-05-09T00:53:15.387Z,77.92
2024-05-09T00:55:44.331Z,77.85
2024-05-09T00:58:17.824Z,77.90
2024-05-09T01:00:46.007Z,77.92
2024-05-09T01:03:14.440Z,77.95
2024-05-09T01:05:43.980Z,77.92
2024-05-09T01:08:12.927Z,77.94
2024-05-09T01:10:44.785Z,77.85
2024-05-09T01:13:13.870Z,77.97
2024-05-09T01:15:42.480Z,77.92
2024-05-09T01:18:12.246Z,78.03
2024-05-09T01:20:43.945Z,78.21
2024-05-09T01:23:15.400Z,78.16
2024-05-09T01:25:46.235Z,78.20
2024-05-09T01:28:15.840Z,78.08
2024-05-09T01:30:43.525Z,78.05
2024-05-09T01:33:12.460Z,78.21
2024-05-09T01:35:42.328Z,78.12
2024-05-09T01:38:16.717Z,78.34
2024-05-09T01:40:46.353Z,78.37
2024-05-09T01:43:14.869Z,78.53
2024-05-09T01:45:42.497Z,78.67
2024-05-09T01:48:11.161Z,78.79
2024-05-09T01:50:42.369Z,78.89
2024-05-09T01:53:13.743Z,78.85
2024-05-09T01:55:43.146Z,78.91
2024-05-09T01:58:10.918Z,78.79
2024-05-09T02:00:42.109Z,78.74
2024-05-09T02:03:16.084Z,78.68
2024-05-09T02:05:48.117Z,78.94
2024-05-09T02:08:19.534Z,78.90
2024-05-09T02:10:49.962Z,78.83
2024-05-09T02:13:18.274Z,78.85
2024-05-09T02:15:45.941Z,78.81
2024-05-09T02:18:14.132Z,78.88
2024-05-09T02:20:42.893Z,78.92
2024-05-09T02:23:11.428Z,78.91
2024-05-09T02:25:40.707Z,78.86
2024-05-09T02:28:08.356Z,78.81
2024-05-09T02:30:40.375Z,78.80
2024-05-09T02:33:12.391Z,78.65
2024-05-09T02:35:43.730Z,78.65
2024-05-09T02:38:12.539Z,78.62
2024-05-09T02:40:40.812Z,78.69
2024-05-09T02:43:11.786Z,78.68
2024-05-09T02:45:40.645Z,78.53
2024-05-09T02:48:13.274Z,78.56
2024-05-09T02:50:43.709Z,78.61
2024-05-09T02:53:12.329Z,78.76
2024-05-09T02:55:41.036Z,78.84
2024-05-09T02:58:09.422Z,78.91
2024-05-09T03:00:40.955Z,78.86
2024-05-09T03:03:13.353Z,78.77
2024-05-09T03:05:44.756Z,78.63
2024-05-09T03:08:12.935Z,78.70
2024-05-09T03:10:40.852Z,78.68
2024-05-09T03:13:14.846Z,78.45
2024-05-09T03:15:45.035Z,78.56
2024-05-09T03:18:13.334Z,78.69
2024-05-09T03:20:43.436Z,78.82
2024-05-09T03:23:11.231Z,78.89
2024-05-09T03:25:39.074Z,78.96
2024-05-09T03:28:07.118Z,79.10
2024-05-09T03:30:41.120Z,79.18
2024-05-09T03:33:13.642Z,79.20
2024-05-09T03:35:43.972Z,79.26
2024-05-09T03:38:11.672Z,79.32
2024-05-09T03:40:50.342Z,79.42
2024-05-09T03:43:19.540Z,79.37
2024-05-09T03:45:50.172Z,79.37
2024-05-09T03:48:18.007Z,79.40
2024-05-09T03:50:45.944Z,79.33
2024-05-09T03:53:14.450Z,79.40
2024-05-09T03:55:42.348Z,79.59
2024-05-09T03:58:12.449Z,79.70
2024-05-09T04:00:41.753Z,79.63
2024-05-09T04:03:11.543Z,79.61
2024-05-09T04:05:42.623Z,79.51
2024-05-09T04:08:15.022Z,79.62
2024-05-09T04:10:43.170Z,79.70
2024-05-09T04:13:11.089Z,79.68
2024-05-09T04:15:39.569Z,79.69
2024-05-09T04:18:07.490Z,79.55
2024-05-09T04:20:39.177Z,79.50
2024-05-09T04:23:13.402Z,79.62
2024-05-09T04:25:43.920Z,79.66
2024-05-09T04:28:11.810Z,79.48
2024-05-09T04:30:41.344Z,79.45
2024-05-09T04:33:12.548Z,79.56
2024-05-09T04:35:43.060Z,79.57
2024-05-09T04:38:12.673Z,79.28
2024-05-09T04:40:40.528Z,79.13
2024-05-09T04:43:15.811Z,79.18
2024-05-09T04:45:43.883Z,79.17
2024-05-09T04:48:11.806Z,79.39
2024-05-09T04:50:40.022Z,79.52
2024-05-09T04:53:10.054Z,79.56
2024-05-09T04:55:40.683Z,79.60
2024-05-09T04:58:09.811Z,79.42
2024-05-09T05:00:41.414Z,79.62
2024-05-09T05:03:14.269Z,79.37
2024-05-09T05:05:45.911Z,79.17
2024-05-09T05:08:15.032Z,79.07
2024-05-09T05:10:44.312Z,78.85
2024-05-09T05:13:16.234Z,79.02
2024-05-09T05:15:44.012Z,79.29
2024-05-09T05:18:11.987Z,79.41
2024-05-09T05:20:39.783Z,79.50
2024-05-09T05:23:11.980Z,79.32
2024-05-09T05:25:41.176Z,79.26
2024-05-09T05:28:09.305Z,79.48
2024-05-09T05:30:38.344Z,79.34
2024-05-09T05:33:10.358Z,79.43
2024-05-09T05:35:39.814Z,79.46
2024-05-09T05:38:08.571Z,79.50
2024-05-09T05:40:38.638Z,79.51
2024-05-09T05:43:09.778Z,79.70
2024-05-09T05:45:38.766Z,79.72
2024-05-09T05:48:07.820Z,79.57
2024-05-09T05:50:37.792Z,79.65
2024-05-09T05:53:08.041Z,79.61
2024-05-09T05:55:38.547Z,79.61
2024-05-09T05:58:10.339Z,79.59
2024-05-09T06:00:40.199Z,79.53
2024-05-09T06:03:10.232Z,79.58
2024-05-09T06:05:39.625Z,79.56
2024-05-09T06:08:08.283Z,79.50
2024-05-09T06:10:39.410Z,79.30
2024-05-09T06:13:12.646Z,79.14
2024-05-09T06:15:41.109Z,79.14
2024-05-09T06:18:10.981Z,79.00
2024-05-09T06:20:42.856Z,79.01
2024-05-09T06:23:12.524Z,78.79
2024-05-09T06:25:41.574Z,78.71
2024-05-09T06:28:09.480Z,78.63
2024-05-09T06:30:40.150Z,78.52
2024-05-09T06:33:13.745Z,78.47
2024-05-09T06:35:44.346Z,78.41
2024-05-09T06:38:12.541Z,78.38
2024-05-09T06:40:42.409Z,78.21
2024-05-09T06:43:17.620Z,78.11
2024-05-09T06:45:48.669Z,78.06
2024-05-09T06:48:20.967Z,77.93
2024-05-09T06:50:50.328Z,77.78
2024-05-09T06:53:22.328Z,77.60
2024-05-09T06:55:50.119Z,77.52
2024-05-09T06:58:17.858Z,77.33
2024-05-09T07:00:45.496Z,77.01
2024-05-09T07:03:16.994Z,76.66
2024-05-09T07:05:47.713Z,76.60
2024-05-09T07:08:17.789Z,76.17
2024-05-09T07:10:45.820Z,75.79
2024-05-09T07:13:14.909Z,75.43
2024-05-09T07:15:43.298Z,75.30
2024-05-09T07:18:17.777Z,75.08
2024-05-09T07:20:48.059Z,74.61
2024-05-09T07:23:16.796Z,74.60
2024-05-09T07:25:44.676Z,74.46
2024-05-09T07:28:15.708Z,74.54
2024-05-09T07:30:43.778Z,74.03
2024-05-09T07:33:23.039Z,73.76
2024-05-09T07:35:52.710Z,73.73
2024-05-09T07:38:20.560Z,73.67
2024-05-09T07:40:48.820Z,73.45
2024-05-09T07:43:16.703Z,73.26
2024-05-09T07:45:52.263Z,72.92
2024-05-09T07:52:38.764Z,72.88
2024-05-09T07:53:47.829Z,72.49
2024-05-09T07:56:21.846Z,72.64
2024-05-09T07:58:55.530Z,72.54
2024-05-09T08:01:25.807Z,72.19
2024-05-09T08:03:54.797Z,72.21
2024-05-09T08:06:23.294Z,72.02
2024-05-09T08:08:50.925Z,71.44
2024-05-09T08:11:20.137Z,71.07
2024-05-09T08:13:47.705Z,70.87
2024-05-09T08:16:15.455Z,70.41
2024-05-09T08:18:43.223Z,70.04
2024-05-09T08:21:10.844Z,69.63
2024-05-09T08:23:38.413Z,69.76
2024-05-09T08:26:05.966Z,69.58
2024-05-09T08:28:33.532Z,69.20
2024-05-09T08:31:04.198Z,69.24
2024-05-09T08:33:33.899Z,68.79
2024-05-09T08:36:01.558Z,68.77
2024-05-09T08:38:29.117Z,68.16
2024-05-09T08:40:56.837Z,68.16
2024-05-09T08:43:27.233Z,67.86
2024-05-09T08:45:56.346Z,67.59
2024-05-09T08:48:25.044Z,67.32
2024-05-09T08:50:53.279Z,67.00
2024-05-09T08:53:21.064Z,66.94
2024-05-09T08:55:51.061Z,66.69
2024-05-09T08:58:19.559Z,66.48
2024-05-09T09:00:48.693Z,66.72
2024-05-09T09:03:19.254Z,66.74
2024-05-09T09:06:06.350Z,66.00
2024-05-09T09:08:34.280Z,65.20
2024-05-09T09:11:02.423Z,65.29
2024-05-09T09:13:30.113Z,65.26
2024-05-09T09:15:59.187Z,64.89
2024-05-09T09:18:29.081Z,64.68
2024-05-09T09:20:56.887Z,64.49
2024-05-09T09:23:29.355Z,63.36
2024-05-09T09:26:00.527Z,64.00
2024-05-09T09:28:29.243Z,64.25
2024-05-09T09:31:04.044Z,63.62
2024-05-09T09:33:32.543Z,62.85
2024-05-09T09:36:02.897Z,62.57
2024-05-09T09:38:32.164Z,62.64
2024-05-09T09:41:06.645Z,62.47
2024-05-09T09:43:36.119Z,61.98
2024-05-09T09:46:08.637Z,61.55
2024-05-09T09:48:40.109Z,59.42
2024-05-09T09:51:08.005Z,58.64
2024-05-09T09:53:37.983Z,58.50
2024-05-09T09:56:09.762Z,58.48
2024-05-09T09:58:39.788Z,57.85
2024-05-09T10:01:07.636Z,57.77
2024-05-09T10:03:36.462Z,57.19
2024-05-09T10:06:06.624Z,57.03
2024-05-09T10:08:36.098Z,55.88
2024-05-09T10:11:04.413Z,55.41
2024-05-09T10:13:34.565Z,55.39
2024-05-09T10:16:11.224Z,55.53
2024-05-09T10:18:40.431Z,55.42
2024-05-09T10:21:19.924Z,55.61
2024-05-09T10:24:03.465Z,54.77
2024-05-09T10:26:33.083Z,54.29
2024-05-09T10:29:19.722Z,54.12
2024-05-09T10:31:47.875Z,53.46
2024-05-09T10:34:23.635Z,53.38
2024-05-09T10:36:56.052Z,53.19
2024-05-09T10:39:25.398Z,53.33
2024-05-09T10:41:53.018Z,51.99
2024-05-09T10:44:21.614Z,49.96
2024-05-09T10:46:50.144Z,49.46
2024-05-09T10:49:17.975Z,50.50
2024-05-09T10:51:46.912Z,51.65
2024-05-09T10:54:14.545Z,51.73
2024-05-09T10:56:42.296Z,51.84
2024-05-09T10:59:12.651Z,50.93
2024-05-09T11:01:40.545Z,51.47
2024-05-09T11:04:08.660Z,50.98
2024-05-09T11:06:38.002Z,50.82
2024-05-09T11:09:05.994Z,51.69
2024-05-09T11:11:33.816Z,51.59
2024-05-09T11:14:12.349Z,51.51
2024-05-09T11:16:40.014Z,50.89
2024-05-09T11:19:13.699Z,51.30
2024-05-09T11:21:41.458Z,51.32
2024-05-09T11:24:11.326Z,51.26
2024-05-09T11:26:39.324Z,51.53
2024-05-09T11:29:06.908Z,51.13
2024-05-09T11:31:48.428Z,51.23
2024-05-09T11:34:16.341Z,50.59
2024-05-09T11:36:44.085Z,50.37
2024-05-09T11:39:11.808Z,49.81
2024-05-09T11:41:39.376Z,48.68
2024-05-09T11:44:07.091Z,49.65
2024-05-09T11:46:34.639Z,50.61
2024-05-09T11:49:02.640Z,50.51
2024-05-09T11:51:30.295Z,49.99
2024-05-09T11:53:57.844Z,49.58
2024-05-09T11:56:25.550Z,49.83
2024-05-09T11:58:53.340Z,49.46
2024-05-09T12:01:22.031Z,48.93
2024-05-09T12:03:51.311Z,49.36
2024-05-09T12:06:19.081Z,49.08
2024-05-09T12:08:47.556Z,49.32
2024-05-09T12:11:15.988Z,48.81
2024-05-09T12:13:43.649Z,48.39
2024-05-09T12:16:11.320Z,49.11
2024-05-09T12:18:39.115Z,49.08
2024-05-09T12:21:06.759Z,49.02
2024-05-09T12:23:34.284Z,49.51
2024-05-09T12:26:02.769Z,49.56
2024-05-09T12:28:30.438Z,49.32
2024-05-09T12:30:57.983Z,49.51
2024-05-09T12:33:25.664Z,49.10
2024-05-09T12:35:53.407Z,48.63
2024-05-09T12:38:21.118Z,48.26
2024-05-09T12:40:48.678Z,48.44
2024-05-09T12:43:17.368Z,48.63
2024-05-09T12:45:45.182Z,49.57
2024-05-09T12:48:13.378Z,49.06
2024-05-09T12:50:41.749Z,48.65
2024-05-09T12:53:09.939Z,48.34
2024-05-09T12:55:44.805Z,48.23
2024-05-09T12:58:24.032Z,47.72
2024-05-09T13:00:52.304Z,46.95
2024-05-09T13:03:20.579Z,46.19
2024-05-09T13:05:49.958Z,47.21
2024-05-09T13:08:17.950Z,46.78
2024-05-09T13:10:45.667Z,46.88
2024-05-09T13:13:13.738Z,46.78
2024-05-09T13:15:41.480Z,46.27
2024-05-09T13:18:09.492Z,46.30
2024-05-09T13:20:37.466Z,46.81
2024-05-09T13:23:07.844Z,46.61
2024-05-09T13:25:37.900Z,45.51
2024-05-09T13:28:07.502Z,45.79
2024-05-09T13:30:40.123Z,45.21
2024-05-09T13:33:12.019Z,44.57
2024-05-09T13:35:45.651Z,44.04
2024-05-09T13:38:18.179Z,43.47
2024-05-09T13:40:46.230Z,43.45
2024-05-09T13:43:14.026Z,42.51
2024-05-09T13:45:41.823Z,41.91
2024-05-09T13:48:10.122Z,41.61
2024-05-09T13:50:38.998Z,43.42
2024-05-09T13:53:07.821Z,42.54
2024-05-09T13:55:40.202Z,43.04
2024-05-09T13:58:09.137Z,42.87
2024-05-09T14:00:46.352Z,42.68
2024-05-09T14:03:19.207Z,42.94
2024-05-09T14:05:50.547Z,41.72
2024-05-09T14:08:19.378Z,40.87
2024-05-09T14:10:47.855Z,40.68
2024-05-09T14:13:16.105Z,40.25
2024-05-09T14:15:45.160Z,40.28
2024-05-09T14:18:14.184Z,39.89
2024-05-09T14:20:42.962Z,40.20
2024-05-09T14:23:10.947Z,39.32
2024-05-09T14:25:41.938Z,38.06
2024-05-09T14:28:12.707Z,39.61
2024-05-09T14:30:42.442Z,39.15
2024-05-09T14:33:11.110Z,38.75
2024-05-09T14:35:39.296Z,38.70
2024-05-09T14:38:08.876Z,38.14
2024-05-09T14:40:42.189Z,37.73
2024-05-09T14:43:13.669Z,37.50
2024-05-09T14:45:43.138Z,38.56
2024-05-09T14:48:15.833Z,39.54
2024-05-09T14:50:43.870Z,39.07
2024-05-09T14:53:13.190Z,38.56
2024-05-09T14:55:42.933Z,38.72
2024-05-09T14:58:12.662Z,37.96
2024-05-09T15:00:46.321Z,37.90
2024-05-09T15:03:21.708Z,38.86
2024-05-09T15:05:51.057Z,38.51
2024-05-09T15:08:19.895Z,38.30
2024-05-09T15:10:49.278Z,37.80
2024-05-09T15:13:18.607Z,37.66
2024-05-09T15:15:46.606Z,37.69
2024-05-09T15:18:15.344Z,38.18
2024-05-09T15:20:46.120Z,37.50
2024-05-09T15:23:13.910Z,36.87
2024-05-09T15:25:41.710Z,37.85
2024-05-09T15:28:09.477Z,36.69
2024-05-09T15:30:37.685Z,36.88
2024-05-09T15:33:06.880Z,37.79
2024-05-09T15:35:35.725Z,36.61
2024-05-09T15:38:04.395Z,37.53
2024-05-09T15:40:39.061Z,38.05
2024-05-09T15:43:10.886Z,38.43
2024-05-09T15:45:40.924Z,37.42
2024-05-09T15:48:10.323Z,38.56
2024-05-09T15:50:41.342Z,37.33
2024-05-09T15:53:12.957Z,38.08
2024-05-09T15:55:42.692Z,37.35
2024-05-09T15:58:11.319Z,37.72
2024-05-09T16:00:42.466Z,38.38
2024-05-09T16:03:14.081Z,38.63
2024-05-09T16:05:45.080Z,38.45
2024-05-09T16:08:14.435Z,37.74
2024-05-09T16:10:45.723Z,37.53
2024-05-09T16:13:15.596Z,37.24
2024-05-09T16:15:43.977Z,38.27
2024-05-09T16:18:12.483Z,38.10
2024-05-09T16:20:42.311Z,37.64
2024-05-09T16:23:12.420Z,38.10
2024-05-09T16:25:42.659Z,38.85
2024-05-09T16:28:11.012Z,38.19
2024-05-09T16:30:40.015Z,38.72
2024-05-09T16:33:08.581Z,38.63
2024-05-09T16:35:40.520Z,38.68
2024-05-09T16:38:08.455Z,37.91
2024-05-09T16:40:40.071Z,38.18
2024-05-09T16:43:10.531Z,38.43
2024-05-09T16:45:40.736Z,38.11
2024-05-09T16:48:09.232Z,38.14
2024-05-09T16:50:37.339Z,38.08
2024-05-09T16:53:06.514Z,37.59
2024-05-09T16:55:35.722Z,37.24
2024-05-09T16:58:04.597Z,37.98
2024-05-09T17:00:40.254Z,37.95
2024-05-09T17:03:14.307Z,38.21
2024-05-09T17:05:45.391Z,38.56
2024-05-09T17:08:18.560Z,38.59
2024-05-09T17:10:51.040Z,39.06
2024-05-09T17:13:19.174Z,38.94
2024-05-09T17:15:47.651Z,38.47
2024-05-09T17:18:16.400Z,38.39
2024-05-09T17:20:44.080Z,38.65
2024-05-09T17:23:14.734Z,38.98
2024-05-09T17:25:42.928Z,39.54
2024-05-09T17:28:11.666Z,40.04
2024-05-09T17:30:41.665Z,39.90
2024-05-09T17:33:11.713Z,40.18
2024-05-09T17:35:40.807Z,40.50
2024-05-09T17:38:09.139Z,40.54
2024-05-09T17:40:38.496Z,40.58
2024-05-09T17:43:09.727Z,39.87
2024-05-09T17:45:40.968Z,40.50
2024-05-09T17:48:11.772Z,40.89
2024-05-09T17:50:41.713Z,41.30
2024-05-09T17:53:10.187Z,41.03
2024-05-09T17:55:38.721Z,41.24
2024-05-09T17:58:07.567Z,41.53
2024-05-09T18:00:39.599Z,41.34
2024-05-09T18:03:11.828Z,40.85
2024-05-09T18:05:41.291Z,41.16
2024-05-09T18:08:09.229Z,41.47
2024-05-09T18:10:39.484Z,41.42
2024-05-09T18:13:09.213Z,42.15
2024-05-09T18:15:37.858Z,41.91
2024-05-09T18:18:07.088Z,42.40
2024-05-09T18:20:42.316Z,42.42
2024-05-09T18:23:16.136Z,42.81
2024-05-09T18:25:45.939Z,43.13
2024-05-09T18:28:14.559Z,43.28
2024-05-09T18:30:42.857Z,43.17
2024-05-09T18:33:11.550Z,43.50
2024-05-09T18:35:43.665Z,43.85
2024-05-09T18:38:11.427Z,44.06
2024-05-09T18:40:40.922Z,43.89
2024-05-09T18:43:10.512Z,44.02
2024-05-09T18:45:38.883Z,44.05
2024-05-09T18:48:09.534Z,44.23
2024-05-09T18:50:40.270Z,44.58
2024-05-09T18:53:12.063Z,45.04
2024-05-09T18:55:44.422Z,45.36
2024-05-09T18:58:12.331Z,45.63
2024-05-09T19:00:42.761Z,46.07
2024-05-09T19:03:14.513Z,46.29
2024-05-09T19:05:45.029Z,46.54
2024-05-09T19:08:14.694Z,47.20
2024-05-09T19:10:42.552Z,47.78
2024-05-09T19:13:13.024Z,48.50
2024-05-09T19:15:43.225Z,49.10
2024-05-09T19:18:15.276Z,49.53
2024-05-09T19:20:44.002Z,49.03
2024-05-09T19:23:12.295Z,49.65
2024-05-09T19:25:40.168Z,50.81
2024-05-09T19:28:08.330Z,51.41
2024-05-09T19:30:40.410Z,51.79
2024-05-09T19:33:12.813Z,52.29
2024-05-09T19:35:42.639Z,52.35
2024-05-09T19:38:11.803Z,52.71
2024-05-09T19:40:39.540Z,53.70
2024-05-09T19:43:07.409Z,54.14
2024-05-09T19:45:36.090Z,54.74
2024-05-09T19:48:06.440Z,54.96
2024-05-09T19:50:41.455Z,55.69
2024-05-09T19:53:13.829Z,56.40
2024-05-09T19:55:42.718Z,56.93
2024-05-09T19:58:11.910Z,57.48
2024-05-09T20:00:42.674Z,57.91
2024-05-09T20:03:13.932Z,58.30
2024-05-09T20:05:44.978Z,58.64
2024-05-09T20:08:12.911Z,58.90
2024-05-09T20:10:40.608Z,59.22
2024-05-09T20:13:08.947Z,59.02
2024-05-09T20:15:37.629Z,59.61
2024-05-09T20:18:06.432Z,59.89
2024-05-09T20:20:39.391Z,59.87
2024-05-09T20:23:11.378Z,60.64
2024-05-09T20:25:40.173Z,61.06
2024-05-09T20:28:08.081Z,61.52
2024-05-09T20:30:36.626Z,61.92
2024-05-09T20:33:07.502Z,62.18
2024-05-09T20:35:36.557Z,62.58
2024-05-09T20:38:04.986Z,63.00
2024-05-09T20:40:37.056Z,63.42
2024-05-09T20:43:10.532Z,63.58
2024-05-09T20:45:39.630Z,63.79
2024-05-09T20:48:09.760Z,64.00
2024-05-09T20:50:41.071Z,64.04
2024-05-09T20:53:13.173Z,64.07
2024-05-09T20:55:43.521Z,64.34
2024-05-09T20:58:11.718Z,64.49
2024-05-09T21:00:42.996Z,64.73
2024-05-09T21:03:16.407Z,64.93
2024-05-09T21:05:45.867Z,64.84
2024-05-09T21:08:14.042Z,64.90
2024-05-09T21:10:41.676Z,65.14
2024-05-09T21:13:09.314Z,65.12
2024-05-09T21:15:37.024Z,65.35
2024-05-09T21:18:05.362Z,65.67
2024-05-09T21:20:34.025Z,66.01
2024-05-09T21:23:02.332Z,66.26
2024-05-09T21:25:31.114Z,66.77
2024-05-09T21:27:59.065Z,67.35
2024-05-09T21:30:32.937Z,67.80
2024-05-09T21:33:09.783Z,67.82
2024-05-09T21:35:39.308Z,68.01
2024-05-09T21:38:07.457Z,68.17
2024-05-09T21:40:36.774Z,68.30
2024-05-09T21:43:07.322Z,68.43
2024-05-09T21:45:35.890Z,68.43
2024-05-09T21:48:04.288Z,68.62
2024-05-09T21:50:39.320Z,68.92
2024-05-09T21:53:13.207Z,69.08
2024-05-09T21:55:42.623Z,69.21
2024-05-09T21:58:13.574Z,69.12
2024-05-09T22:00:46.059Z,69.35
2024-05-09T22:03:14.487Z,69.43
2024-05-09T22:05:43.950Z,69.57
2024-05-09T22:08:11.871Z,69.83
2024-05-09T22:10:40.082Z,69.88
2024-05-09T22:13:08.897Z,69.86
2024-05-09T22:15:40.068Z,69.76
2024-05-09T22:18:10.390Z,69.65
2024-05-09T22:20:43.542Z,69.69
2024-05-09T22:23:11.804Z,69.95
2024-05-09T22:25:39.620Z,70.23
2024-05-09T22:28:07.593Z,70.59
2024-05-09T22:30:38.671Z,70.83
2024-05-09T22:33:09.564Z,71.21
2024-05-09T22:35:39.852Z,71.40
2024-05-09T22:38:07.550Z,71.56
2024-05-09T22:43:05.759Z,71.56
2024-05-09T22:45:33.424Z,71.93
2024-05-09T22:48:01.366Z,72.21
2024-05-09T22:50:33.195Z,72.54
2024-05-09T22:53:01.438Z,72.87
2024-05-09T22:55:29.103Z,72.90
2024-05-09T22:57:57.208Z,72.97
2024-05-09T23:00:31.209Z,73.32
2024-05-09T23:03:01.138Z,73.56
2024-05-09T23:05:31.616Z,73.81
2024-05-09T23:08:01.814Z,73.84
2024-05-09T23:10:35.592Z,74.10
2024-05-09T23:13:07.371Z,74.14
2024-05-09T23:15:39.643Z,74.05
2024-05-09T23:18:07.970Z,74.52
2024-05-09T23:20:38.936Z,74.62
2024-05-09T23:23:10.775Z,74.78
2024-05-09T23:25:42.327Z,74.91
2024-05-09T23:28:12.937Z,75.07
2024-05-09T23:30:41.816Z,74.82
2024-05-09T23:33:12.691Z,74.90
2024-05-09T23:35:42.137Z,74.82
2024-05-09T23:38:09.743Z,74.97
2024-05-09T23:40:40.186Z,75.15
2024-05-09T23:43:10.801Z,75.24
2024-05-09T23:45:39.493Z,74.97
2024-05-09T23:48:07.863Z,75.02
2024-05-09T23:50:38.088Z,74.92
2024-05-09T23:53:09.065Z,74.89
2024-05-09T23:55:38.381Z,75.05
2024-05-09T23:58:07.437Z,75.17
